sensor_id;sensor_type;location;lat;lon;timestamp;P1;durP1;ratioP1;P2;durP2;ratioP2
29466;SDS011;60968;37.490;-122.288;2023-02-11T00:00:17;4.70;;;0.90;;
29466;SDS011;60968;37.490;-122.288;2023-02-11T00:03:18;2.93;;;0.60;;
29466;SDS011;60968;37.490;-122.288;2023-02-11T00:06:19;3.50;;;0.60;;
29466;SDS011;60968;37.490;-122.288;2023-02-11T00:09:21;9.03;;;0.80;;
29466;SDS011;60968;37.490;-122.288;2023-02-11T00:12:22;5.73;;;0.73;;
29466;SDS011;60968;37.490;-122.288;2023-02-11T00:15:23;6.90;;;1.10;;
29466;SDS011;60968;37.490;-122.288;2023-02-11T00:18:24;6.97;;;0.53;;
29466;SDS011;60968;37.490;-122.288;2023-02-11T00:21:26;1.50;;;0.33;;
29466;SDS011;60968;37.490;-122.288;2023-02-11T00:24:27;5.40;;;0.70;;
29466;SDS011;60968;37.490;-122.288;2023-02-11T00:27:28;4.73;;;0.93;;
29466;SDS011;60968;37.490;-122.288;2023-02-11T00:30:29;3.23;;;1.00;;
29466;SDS011;60968;37.490;-122.288;2023-02-11T00:33:30;10.67;;;1.20;;
29466;SDS011;60968;37.490;-122.288;2023-02-11T00:36:31;6.17;;;1.07;;
29466;SDS011;60968;37.490;-122.288;2023-02-11T00:39:34;6.17;;;1.07;;
29466;SDS011;60968;37.490;-122.288;2023-02-11T00:42:36;8.93;;;1.00;;
29466;SDS011;60968;37.490;-122.288;2023-02-11T00:45:37;4.87;;;0.80;;
29466;SDS011;60968;37.490;-122.288;2023-02-11T00:48:38;3.03;;;0.70;;
29466;SDS011;60968;37.490;-122.288;2023-02-11T00:51:38;7.50;;;1.03;;
29466;SDS011;60968;37.490;-122.288;2023-02-11T00:54:39;8.07;;;1.10;;
29466;SDS011;60968;37.490;-122.288;2023-02-11T00:57:40;9.77;;;1.53;;
29466;SDS011;60968;37.490;-122.288;2023-02-11T01:00:41;4.07;;;0.90;;
29466;SDS011;60968;37.490;-122.288;2023-02-11T01:03:42;4.87;;;0.80;;
29466;SDS011;60968;37.490;-122.288;2023-02-11T01:06:44;7.47;;;1.17;;
29466;SDS011;60968;37.490;-122.288;2023-02-11T01:09:45;2.73;;;0.97;;
29466;SDS011;60968;37.490;-122.288;2023-02-11T01:12:46;10.27;;;1.23;;
29466;SDS011;60968;37.490;-122.288;2023-02-11T01:15:47;5.03;;;0.83;;
29466;SDS011;60968;37.490;-122.288;2023-02-11T01:18:48;6.00;;;0.83;;
29466;SDS011;60968;37.490;-122.288;2023-02-11T01:21:49;10.77;;;1.60;;
29466;SDS011;60968;37.490;-122.288;2023-02-11T01:24:50;17.90;;;1.67;;
29466;SDS011;60968;37.490;-122.288;2023-02-11T01:27:51;9.03;;;1.47;;
29466;SDS011;60968;37.490;-122.288;2023-02-11T01:30:54;9.83;;;1.30;;
29466;SDS011;60968;37.490;-122.288;2023-02-11T01:33:55;58.10;;;10.13;;
29466;SDS011;60968;37.490;-122.288;2023-02-11T01:36:59;25.73;;;5.63;;
29466;SDS011;60968;37.490;-122.288;2023-02-11T01:40:01;14.37;;;1.57;;
29466;SDS011;60968;37.490;-122.288;2023-02-11T01:43:03;9.10;;;1.30;;
29466;SDS011;60968;37.490;-122.288;2023-02-11T01:46:11;11.00;;;1.47;;
29466;SDS011;60968;37.490;-122.288;2023-02-11T01:49:27;13.50;;;1.37;;
29466;SDS011;60968;37.490;-122.288;2023-02-11T01:52:33;17.47;;;2.10;;
29466;SDS011;60968;37.490;-122.288;2023-02-11T01:55:37;21.07;;;1.77;;
29466;SDS011;60968;37.490;-122.288;2023-02-11T01:58:40;11.53;;;1.50;;
29466;SDS011;60968;37.490;-122.288;2023-02-11T02:01:43;13.33;;;1.43;;
29466;SDS011;60968;37.490;-122.288;2023-02-11T02:04:56;7.67;;;1.20;;
29466;SDS011;60968;37.490;-122.288;2023-02-11T02:11:44;14.93;;;1.77;;
29466;SDS011;60968;37.490;-122.288;2023-02-11T02:14:45;25.33;;;3.03;;
29466;SDS011;60968;37.490;-122.288;2023-02-11T02:17:56;8.93;;;1.33;;
29466;SDS011;60968;37.490;-122.288;2023-02-11T02:34:46;15.50;;;2.00;;
29466;SDS011;60968;37.490;-122.288;2023-02-11T02:37:55;8.07;;;1.80;;
29466;SDS011;60968;37.490;-122.288;2023-02-11T02:44:22;14.50;;;2.07;;
29466;SDS011;60968;37.490;-122.288;2023-02-11T02:47:24;13.10;;;1.87;;
29466;SDS011;60968;37.490;-122.288;2023-02-11T02:50:29;14.97;;;1.77;;
29466;SDS011;60968;37.490;-122.288;2023-02-11T02:53:39;20.77;;;2.60;;
29466;SDS011;60968;37.490;-122.288;2023-02-11T03:06:54;11.10;;;1.57;;
29466;SDS011;60968;37.490;-122.288;2023-02-11T03:10:21;13.37;;;2.10;;
29466;SDS011;60968;37.490;-122.288;2023-02-11T03:13:33;17.13;;;2.43;;
29466;SDS011;60968;37.490;-122.288;2023-02-11T03:16:36;10.33;;;1.90;;
29466;SDS011;60968;37.490;-122.288;2023-02-11T03:19:39;19.40;;;2.57;;
29466;SDS011;60968;37.490;-122.288;2023-02-11T03:25:51;15.27;;;1.87;;
29466;SDS011;60968;37.490;-122.288;2023-02-11T03:38:44;9.23;;;1.47;;
29466;SDS011;60968;37.490;-122.288;2023-02-11T03:41:47;11.93;;;1.70;;
29466;SDS011;60968;37.490;-122.288;2023-02-11T03:44:52;16.50;;;2.53;;
29466;SDS011;60968;37.490;-122.288;2023-02-11T03:47:59;11.43;;;1.80;;
29466;SDS011;60968;37.490;-122.288;2023-02-11T03:51:21;9.73;;;1.70;;
29466;SDS011;60968;37.490;-122.288;2023-02-11T03:54:26;12.37;;;1.80;;
29466;SDS011;60968;37.490;-122.288;2023-02-11T03:57:29;10.70;;;1.80;;
29466;SDS011;60968;37.490;-122.288;2023-02-11T04:00:31;16.90;;;1.97;;
29466;SDS011;60968;37.490;-122.288;2023-02-11T04:03:34;14.07;;;1.83;;
29466;SDS011;60968;37.490;-122.288;2023-02-11T04:06:36;14.73;;;1.77;;
29466;SDS011;60968;37.490;-122.288;2023-02-11T04:09:37;16.93;;;2.33;;
29466;SDS011;60968;37.490;-122.288;2023-02-11T04:12:38;14.63;;;2.20;;
29466;SDS011;60968;37.490;-122.288;2023-02-11T04:15:39;17.80;;;1.97;;
29466;SDS011;60968;37.490;-122.288;2023-02-11T04:18:40;11.57;;;1.90;;
29466;SDS011;60968;37.490;-122.288;2023-02-11T04:21:40;11.53;;;2.37;;
29466;SDS011;60968;37.490;-122.288;2023-02-11T04:24:41;14.47;;;2.03;;
29466;SDS011;60968;37.490;-122.288;2023-02-11T04:27:42;20.73;;;2.90;;
29466;SDS011;60968;37.490;-122.288;2023-02-11T04:30:43;21.27;;;2.40;;
29466;SDS011;60968;37.490;-122.288;2023-02-11T04:33:44;11.97;;;2.07;;
29466;SDS011;60968;37.490;-122.288;2023-02-11T04:36:45;18.03;;;2.70;;
29466;SDS011;60968;37.490;-122.288;2023-02-11T04:39:46;11.77;;;2.40;;
29466;SDS011;60968;37.490;-122.288;2023-02-11T04:42:47;19.17;;;2.60;;
29466;SDS011;60968;37.490;-122.288;2023-02-11T04:45:48;15.03;;;2.33;;
29466;SDS011;60968;37.490;-122.288;2023-02-11T04:48:49;20.60;;;2.43;;
29466;SDS011;60968;37.490;-122.288;2023-02-11T04:51:50;14.77;;;2.07;;
29466;SDS011;60968;37.490;-122.288;2023-02-11T04:54:51;14.87;;;2.30;;
29466;SDS011;60968;37.490;-122.288;2023-02-11T04:57:52;12.43;;;2.40;;
29466;SDS011;60968;37.490;-122.288;2023-02-11T05:00:52;13.20;;;1.77;;
29466;SDS011;60968;37.490;-122.288;2023-02-11T05:03:53;13.80;;;1.97;;
29466;SDS011;60968;37.490;-122.288;2023-02-11T05:06:54;11.77;;;2.23;;
29466;SDS011;60968;37.490;-122.288;2023-02-11T05:09:55;10.40;;;1.67;;
29466;SDS011;60968;37.490;-122.288;2023-02-11T05:12:56;17.70;;;2.10;;
29466;SDS011;60968;37.490;-122.288;2023-02-11T05:15:57;15.20;;;2.40;;
29466;SDS011;60968;37.490;-122.288;2023-02-11T05:18:59;15.63;;;2.00;;
29466;SDS011;60968;37.490;-122.288;2023-02-11T05:22:00;13.50;;;1.70;;
29466;SDS011;60968;37.490;-122.288;2023-02-11T05:25:01;8.50;;;1.73;;
29466;SDS011;60968;37.490;-122.288;2023-02-11T05:28:03;18.30;;;2.30;;
29466;SDS011;60968;37.490;-122.288;2023-02-11T05:31:05;14.30;;;1.60;;
29466;SDS011;60968;37.490;-122.288;2023-02-11T05:34:06;19.07;;;2.53;;
29466;SDS011;60968;37.490;-122.288;2023-02-11T05:37:07;14.27;;;1.70;;
29466;SDS011;60968;37.490;-122.288;2023-02-11T05:40:08;9.83;;;1.67;;
29466;SDS011;60968;37.490;-122.288;2023-02-11T05:43:10;13.93;;;1.93;;
29466;SDS011;60968;37.490;-122.288;2023-02-11T05:46:11;12.90;;;1.63;;
29466;SDS011;60968;37.490;-122.288;2023-02-11T05:49:11;15.20;;;1.97;;
29466;SDS011;60968;37.490;-122.288;2023-02-11T05:52:12;17.13;;;2.23;;
29466;SDS011;60968;37.490;-122.288;2023-02-11T05:55:13;11.73;;;1.73;;
29466;SDS011;60968;37.490;-122.288;2023-02-11T05:58:15;11.63;;;2.37;;
29466;SDS011;60968;37.490;-122.288;2023-02-11T06:01:15;11.90;;;1.40;;
29466;SDS011;60968;37.490;-122.288;2023-02-11T06:04:18;11.40;;;1.87;;
29466;SDS011;60968;37.490;-122.288;2023-02-11T06:07:18;16.83;;;1.60;;
29466;SDS011;60968;37.490;-122.288;2023-02-11T06:10:19;13.90;;;1.83;;
29466;SDS011;60968;37.490;-122.288;2023-02-11T06:13:22;14.23;;;1.87;;
29466;SDS011;60968;37.490;-122.288;2023-02-11T06:16:24;8.93;;;1.60;;
29466;SDS011;60968;37.490;-122.288;2023-02-11T06:19:25;10.77;;;1.60;;
29466;SDS011;60968;37.490;-122.288;2023-02-11T06:22:26;9.90;;;2.17;;
29466;SDS011;60968;37.490;-122.288;2023-02-11T06:25:26;7.53;;;1.43;;
29466;SDS011;60968;37.490;-122.288;2023-02-11T06:28:27;16.83;;;1.80;;
29466;SDS011;60968;37.490;-122.288;2023-02-11T06:31:29;13.97;;;1.83;;
29466;SDS011;60968;37.490;-122.288;2023-02-11T06:34:29;11.77;;;1.40;;
29466;SDS011;60968;37.490;-122.288;2023-02-11T06:37:32;14.53;;;1.57;;
29466;SDS011;60968;37.490;-122.288;2023-02-11T06:40:33;7.93;;;1.43;;
29466;SDS011;60968;37.490;-122.288;2023-02-11T06:43:34;9.40;;;1.23;;
29466;SDS011;60968;37.490;-122.288;2023-02-11T06:46:35;13.83;;;1.27;;
29466;SDS011;60968;37.490;-122.288;2023-02-11T06:49:37;8.27;;;1.73;;
29466;SDS011;60968;37.490;-122.288;2023-02-11T06:52:38;14.23;;;1.77;;
29466;SDS011;60968;37.490;-122.288;2023-02-11T06:55:39;6.70;;;1.03;;
29466;SDS011;60968;37.490;-122.288;2023-02-11T06:58:40;8.07;;;1.43;;
29466;SDS011;60968;37.490;-122.288;2023-02-11T07:01:42;9.33;;;2.07;;
29466;SDS011;60968;37.490;-122.288;2023-02-11T07:04:43;7.90;;;1.40;;
29466;SDS011;60968;37.490;-122.288;2023-02-11T07:07:45;9.43;;;1.63;;
29466;SDS011;60968;37.490;-122.288;2023-02-11T07:10:46;9.50;;;1.57;;
29466;SDS011;60968;37.490;-122.288;2023-02-11T07:13:47;4.00;;;0.90;;
29466;SDS011;60968;37.490;-122.288;2023-02-11T07:16:47;10.00;;;1.50;;
29466;SDS011;60968;37.490;-122.288;2023-02-11T07:19:48;8.40;;;1.37;;
29466;SDS011;60968;37.490;-122.288;2023-02-11T07:22:49;11.63;;;1.30;;
29466;SDS011;60968;37.490;-122.288;2023-02-11T07:25:50;6.70;;;1.20;;
29466;SDS011;60968;37.490;-122.288;2023-02-11T07:28:51;10.43;;;1.93;;
29466;SDS011;60968;37.490;-122.288;2023-02-11T07:31:53;11.83;;;1.87;;
29466;SDS011;60968;37.490;-122.288;2023-02-11T07:34:54;7.17;;;1.10;;
29466;SDS011;60968;37.490;-122.288;2023-02-11T07:38:00;9.83;;;1.23;;
29466;SDS011;60968;37.490;-122.288;2023-02-11T07:41:02;5.63;;;1.00;;
29466;SDS011;60968;37.490;-122.288;2023-02-11T07:44:05;5.43;;;1.10;;
29466;SDS011;60968;37.490;-122.288;2023-02-11T07:47:06;7.50;;;1.40;;
29466;SDS011;60968;37.490;-122.288;2023-02-11T07:50:07;11.53;;;1.17;;
29466;SDS011;60968;37.490;-122.288;2023-02-11T07:53:09;12.67;;;1.10;;
29466;SDS011;60968;37.490;-122.288;2023-02-11T07:56:10;7.13;;;0.83;;
29466;SDS011;60968;37.490;-122.288;2023-02-11T07:59:13;8.37;;;1.10;;
29466;SDS011;60968;37.490;-122.288;2023-02-11T08:02:14;7.67;;;1.77;;
29466;SDS011;60968;37.490;-122.288;2023-02-11T08:05:14;7.03;;;1.10;;
29466;SDS011;60968;37.490;-122.288;2023-02-11T08:08:15;8.73;;;2.00;;
29466;SDS011;60968;37.490;-122.288;2023-02-11T08:11:23;8.53;;;1.17;;
29466;SDS011;60968;37.490;-122.288;2023-02-11T08:14:27;9.00;;;1.53;;
29466;SDS011;60968;37.490;-122.288;2023-02-11T08:17:28;6.10;;;1.20;;
29466;SDS011;60968;37.490;-122.288;2023-02-11T08:20:29;15.67;;;2.17;;
29466;SDS011;60968;37.490;-122.288;2023-02-11T08:23:29;10.27;;;1.33;;
29466;SDS011;60968;37.490;-122.288;2023-02-11T08:26:30;14.53;;;1.90;;
29466;SDS011;60968;37.490;-122.288;2023-02-11T08:29:32;12.30;;;1.70;;
29466;SDS011;60968;37.490;-122.288;2023-02-11T08:32:33;9.67;;;2.03;;
29466;SDS011;60968;37.490;-122.288;2023-02-11T08:35:34;13.17;;;1.77;;
29466;SDS011;60968;37.490;-122.288;2023-02-11T08:38:35;12.57;;;1.60;;
29466;SDS011;60968;37.490;-122.288;2023-02-11T08:41:36;13.67;;;1.57;;
29466;SDS011;60968;37.490;-122.288;2023-02-11T08:44:38;11.30;;;1.93;;
29466;SDS011;60968;37.490;-122.288;2023-02-11T08:47:39;14.70;;;1.87;;
29466;SDS011;60968;37.490;-122.288;2023-02-11T08:50:40;9.17;;;1.60;;
29466;SDS011;60968;37.490;-122.288;2023-02-11T08:53:41;11.40;;;1.50;;
29466;SDS011;60968;37.490;-122.288;2023-02-11T08:56:42;8.57;;;1.53;;
29466;SDS011;60968;37.490;-122.288;2023-02-11T08:59:43;7.63;;;1.10;;
29466;SDS011;60968;37.490;-122.288;2023-02-11T09:02:44;12.83;;;1.40;;
29466;SDS011;60968;37.490;-122.288;2023-02-11T09:05:46;12.10;;;2.07;;
29466;SDS011;60968;37.490;-122.288;2023-02-11T09:08:49;9.83;;;1.90;;
29466;SDS011;60968;37.490;-122.288;2023-02-11T09:11:52;7.30;;;1.20;;
29466;SDS011;60968;37.490;-122.288;2023-02-11T09:14:53;8.83;;;1.50;;
29466;SDS011;60968;37.490;-122.288;2023-02-11T09:17:54;9.33;;;1.23;;
29466;SDS011;60968;37.490;-122.288;2023-02-11T09:21:05;12.50;;;1.70;;
29466;SDS011;60968;37.490;-122.288;2023-02-11T09:24:07;16.27;;;1.60;;
29466;SDS011;60968;37.490;-122.288;2023-02-11T09:27:08;12.13;;;1.60;;
29466;SDS011;60968;37.490;-122.288;2023-02-11T09:30:09;10.43;;;1.30;;
29466;SDS011;60968;37.490;-122.288;2023-02-11T09:33:11;10.47;;;1.67;;
29466;SDS011;60968;37.490;-122.288;2023-02-11T09:36:13;15.53;;;2.03;;
29466;SDS011;60968;37.490;-122.288;2023-02-11T09:39:18;7.43;;;1.00;;
29466;SDS011;60968;37.490;-122.288;2023-02-11T09:45:38;5.70;;;0.90;;
29466;SDS011;60968;37.490;-122.288;2023-02-11T09:48:40;8.17;;;1.07;;
29466;SDS011;60968;37.490;-122.288;2023-02-11T09:51:44;12.83;;;1.33;;
29466;SDS011;60968;37.490;-122.288;2023-02-11T09:57:57;8.00;;;2.10;;
29466;SDS011;60968;37.490;-122.288;2023-02-11T10:01:12;17.73;;;1.73;;
29466;SDS011;60968;37.490;-122.288;2023-02-11T10:16:01;12.80;;;1.87;;
29466;SDS011;60968;37.490;-122.288;2023-02-11T10:22:24;8.73;;;1.70;;
29466;SDS011;60968;37.490;-122.288;2023-02-11T10:25:37;10.60;;;1.43;;
29466;SDS011;60968;37.490;-122.288;2023-02-11T10:28:44;11.60;;;1.20;;
29466;SDS011;60968;37.490;-122.288;2023-02-11T10:31:47;7.80;;;1.10;;
29466;SDS011;60968;37.490;-122.288;2023-02-11T10:34:50;5.93;;;1.37;;
29466;SDS011;60968;37.490;-122.288;2023-02-11T10:37:55;4.23;;;0.70;;
29466;SDS011;60968;37.490;-122.288;2023-02-11T10:40:56;4.67;;;0.73;;
29466;SDS011;60968;37.490;-122.288;2023-02-11T10:43:57;7.43;;;1.30;;
29466;SDS011;60968;37.490;-122.288;2023-02-11T10:47:20;5.20;;;0.93;;
29466;SDS011;60968;37.490;-122.288;2023-02-11T10:50:25;6.83;;;0.63;;
29466;SDS011;60968;37.490;-122.288;2023-02-11T10:53:28;4.10;;;0.90;;
29466;SDS011;60968;37.490;-122.288;2023-02-11T10:56:29;3.60;;;0.83;;
29466;SDS011;60968;37.490;-122.288;2023-02-11T10:59:35;4.07;;;0.90;;
29466;SDS011;60968;37.490;-122.288;2023-02-11T11:02:37;6.43;;;0.67;;
29466;SDS011;60968;37.490;-122.288;2023-02-11T11:05:46;4.43;;;0.70;;
29466;SDS011;60968;37.490;-122.288;2023-02-11T11:08:52;2.73;;;0.47;;
29466;SDS011;60968;37.490;-122.288;2023-02-11T11:11:53;5.20;;;0.70;;
29466;SDS011;60968;37.490;-122.288;2023-02-11T11:15:18;6.93;;;0.80;;
29466;SDS011;60968;37.490;-122.288;2023-02-11T11:18:44;6.90;;;1.03;;
29466;SDS011;60968;37.490;-122.288;2023-02-11T11:21:48;4.77;;;0.80;;
29466;SDS011;60968;37.490;-122.288;2023-02-11T11:24:53;4.43;;;0.80;;
29466;SDS011;60968;37.490;-122.288;2023-02-11T11:27:55;10.37;;;1.27;;
29466;SDS011;60968;37.490;-122.288;2023-02-11T11:30:58;4.13;;;0.90;;
29466;SDS011;60968;37.490;-122.288;2023-02-11T11:34:00;6.80;;;1.03;;
29466;SDS011;60968;37.490;-122.288;2023-02-11T11:40:28;12.70;;;1.63;;
29466;SDS011;60968;37.490;-122.288;2023-02-11T11:43:33;9.80;;;1.30;;
29466;SDS011;60968;37.490;-122.288;2023-02-11T11:46:35;17.47;;;2.07;;
29466;SDS011;60968;37.490;-122.288;2023-02-11T11:50:04;10.30;;;1.07;;
29466;SDS011;60968;37.490;-122.288;2023-02-11T11:53:19;11.73;;;1.27;;
29466;SDS011;60968;37.490;-122.288;2023-02-11T11:56:58;5.90;;;0.93;;
29466;SDS011;60968;37.490;-122.288;2023-02-11T12:00:05;8.67;;;1.30;;
29466;SDS011;60968;37.490;-122.288;2023-02-11T12:20:04;14.67;;;1.73;;
29466;SDS011;60968;37.490;-122.288;2023-02-11T12:23:38;6.73;;;1.73;;
29466;SDS011;60968;37.490;-122.288;2023-02-11T12:43:40;6.80;;;0.80;;
29466;SDS011;60968;37.490;-122.288;2023-02-11T12:46:49;6.93;;;1.40;;
29466;SDS011;60968;37.490;-122.288;2023-02-11T12:57:28;8.97;;;0.93;;
29466;SDS011;60968;37.490;-122.288;2023-02-11T13:00:52;4.80;;;0.63;;
29466;SDS011;60968;37.490;-122.288;2023-02-11T13:03:58;6.20;;;1.00;;
29466;SDS011;60968;37.490;-122.288;2023-02-11T13:07:10;6.00;;;0.77;;
29466;SDS011;60968;37.490;-122.288;2023-02-11T13:10:25;0.97;;;0.30;;
29466;SDS011;60968;37.490;-122.288;2023-02-11T13:13:41;5.17;;;1.20;;
29466;SDS011;60968;37.490;-122.288;2023-02-11T13:17:16;3.40;;;0.30;;
29466;SDS011;60968;37.490;-122.288;2023-02-11T13:24:08;3.90;;;0.63;;
29466;SDS011;60968;37.490;-122.288;2023-02-11T13:30:45;6.10;;;0.60;;
29466;SDS011;60968;37.490;-122.288;2023-02-11T13:33:46;3.23;;;0.60;;
29466;SDS011;60968;37.490;-122.288;2023-02-11T13:36:52;5.73;;;0.70;;
29466;SDS011;60968;37.490;-122.288;2023-02-11T13:39:59;6.90;;;0.70;;
29466;SDS011;60968;37.490;-122.288;2023-02-11T13:43:04;4.53;;;0.47;;
29466;SDS011;60968;37.490;-122.288;2023-02-11T13:46:07;4.70;;;0.67;;
29466;SDS011;60968;37.490;-122.288;2023-02-11T13:49:16;6.47;;;0.53;;
29466;SDS011;60968;37.490;-122.288;2023-02-11T13:55:30;3.97;;;0.97;;
29466;SDS011;60968;37.490;-122.288;2023-02-11T13:58:33;6.63;;;1.00;;
29466;SDS011;60968;37.490;-122.288;2023-02-11T14:14:34;4.90;;;0.60;;
29466;SDS011;60968;37.490;-122.288;2023-02-11T14:17:59;3.10;;;0.30;;
29466;SDS011;60968;37.490;-122.288;2023-02-11T14:21:06;0.67;;;0.23;;
29466;SDS011;60968;37.490;-122.288;2023-02-11T14:27:23;3.50;;;0.70;;
29466;SDS011;60968;37.490;-122.288;2023-02-11T14:44:29;13.90;;;0.83;;
29466;SDS011;60968;37.490;-122.288;2023-02-11T14:50:53;1.27;;;0.40;;
29466;SDS011;60968;37.490;-122.288;2023-02-11T14:54:01;0.17;;;0.10;;
29466;SDS011;60968;37.490;-122.288;2023-02-11T14:57:16;2.03;;;0.50;;
29466;SDS011;60968;37.490;-122.288;2023-02-11T15:00:19;3.73;;;0.30;;
29466;SDS011;60968;37.490;-122.288;2023-02-11T15:06:28;2.97;;;0.30;;
29466;SDS011;60968;37.490;-122.288;2023-02-11T15:09:39;9.43;;;0.57;;
29466;SDS011;60968;37.490;-122.288;2023-02-11T15:12:44;1.03;;;0.20;;
29466;SDS011;60968;37.490;-122.288;2023-02-11T15:15:46;4.77;;;0.60;;
29466;SDS011;60968;37.490;-122.288;2023-02-11T15:18:52;5.37;;;0.43;;
29466;SDS011;60968;37.490;-122.288;2023-02-11T15:21:55;5.13;;;0.70;;
29466;SDS011;60968;37.490;-122.288;2023-02-11T15:24:58;2.40;;;0.43;;
29466;SDS011;60968;37.490;-122.288;2023-02-11T15:28:09;1.93;;;0.43;;
29466;SDS011;60968;37.490;-122.288;2023-02-11T15:31:20;4.53;;;0.40;;
29466;SDS011;60968;37.490;-122.288;2023-02-11T15:34:22;1.03;;;0.20;;
29466;SDS011;60968;37.490;-122.288;2023-02-11T15:37:24;3.93;;;0.37;;
29466;SDS011;60968;37.490;-122.288;2023-02-11T15:40:28;1.90;;;0.23;;
29466;SDS011;60968;37.490;-122.288;2023-02-11T15:43:44;1.83;;;0.50;;
29466;SDS011;60968;37.490;-122.288;2023-02-11T15:46:46;3.60;;;0.43;;
29466;SDS011;60968;37.490;-122.288;2023-02-11T15:49:47;2.30;;;0.20;;
29466;SDS011;60968;37.490;-122.288;2023-02-11T15:52:48;3.70;;;0.40;;
29466;SDS011;60968;37.490;-122.288;2023-02-11T15:55:50;5.43;;;0.40;;
29466;SDS011;60968;37.490;-122.288;2023-02-11T15:58:58;1.77;;;0.40;;
29466;SDS011;60968;37.490;-122.288;2023-02-11T16:02:13;2.13;;;0.23;;
29466;SDS011;60968;37.490;-122.288;2023-02-11T16:05:26;3.10;;;0.50;;
29466;SDS011;60968;37.490;-122.288;2023-02-11T16:08:37;2.93;;;0.20;;
29466;SDS011;60968;37.490;-122.288;2023-02-11T16:14:48;5.37;;;1.90;;
29466;SDS011;60968;37.490;-122.288;2023-02-11T16:17:48;0.67;;;0.23;;
29466;SDS011;60968;37.490;-122.288;2023-02-11T16:20:49;5.13;;;0.33;;
29466;SDS011;60968;37.490;-122.288;2023-02-11T16:23:54;1.40;;;0.37;;
29466;SDS011;60968;37.490;-122.288;2023-02-11T16:27:00;2.80;;;0.20;;
29466;SDS011;60968;37.490;-122.288;2023-02-11T16:30:32;2.93;;;0.27;;
29466;SDS011;60968;37.490;-122.288;2023-02-11T16:33:36;3.80;;;0.30;;
29466;SDS011;60968;37.490;-122.288;2023-02-11T16:36:37;3.33;;;0.90;;
29466;SDS011;60968;37.490;-122.288;2023-02-11T16:39:37;2.80;;;0.20;;
29466;SDS011;60968;37.490;-122.288;2023-02-11T16:42:38;1.80;;;0.40;;
29466;SDS011;60968;37.490;-122.288;2023-02-11T16:45:39;1.73;;;0.20;;
29466;SDS011;60968;37.490;-122.288;2023-02-11T16:48:40;0.43;;;0.20;;
29466;SDS011;60968;37.490;-122.288;2023-02-11T16:51:41;1.43;;;0.20;;
29466;SDS011;60968;37.490;-122.288;2023-02-11T16:54:43;2.00;;;0.40;;
29466;SDS011;60968;37.490;-122.288;2023-02-11T16:57:44;2.87;;;0.43;;
29466;SDS011;60968;37.490;-122.288;2023-02-11T17:00:45;1.63;;;0.67;;
29466;SDS011;60968;37.490;-122.288;2023-02-11T17:03:47;3.67;;;0.43;;
29466;SDS011;60968;37.490;-122.288;2023-02-11T17:06:48;1.17;;;0.40;;
29466;SDS011;60968;37.490;-122.288;2023-02-11T17:09:49;1.90;;;0.50;;
29466;SDS011;60968;37.490;-122.288;2023-02-11T17:12:50;3.57;;;0.50;;
29466;SDS011;60968;37.490;-122.288;2023-02-11T17:15:51;1.00;;;0.50;;
29466;SDS011;60968;37.490;-122.288;2023-02-11T17:18:52;1.27;;;0.50;;
29466;SDS011;60968;37.490;-122.288;2023-02-11T17:21:55;3.10;;;0.80;;
29466;SDS011;60968;37.490;-122.288;2023-02-11T17:24:57;2.13;;;0.40;;
29466;SDS011;60968;37.490;-122.288;2023-02-11T17:27:58;7.30;;;0.70;;
29466;SDS011;60968;37.490;-122.288;2023-02-11T17:30:59;1.57;;;0.50;;
29466;SDS011;60968;37.490;-122.288;2023-02-11T17:34:00;2.30;;;0.50;;
29466;SDS011;60968;37.490;-122.288;2023-02-11T17:37:03;1.27;;;0.60;;
29466;SDS011;60968;37.490;-122.288;2023-02-11T17:40:05;1.77;;;0.60;;
29466;SDS011;60968;37.490;-122.288;2023-02-11T17:43:06;2.20;;;0.63;;
29466;SDS011;60968;37.490;-122.288;2023-02-11T17:46:07;3.10;;;0.80;;
29466;SDS011;60968;37.490;-122.288;2023-02-11T17:49:09;3.17;;;0.90;;
29466;SDS011;60968;37.490;-122.288;2023-02-11T17:52:11;5.23;;;1.07;;
29466;SDS011;60968;37.490;-122.288;2023-02-11T17:55:13;5.40;;;1.23;;
29466;SDS011;60968;37.490;-122.288;2023-02-11T17:58:13;8.77;;;1.30;;
29466;SDS011;60968;37.490;-122.288;2023-02-11T18:01:16;4.43;;;1.20;;
29466;SDS011;60968;37.490;-122.288;2023-02-11T18:04:17;6.97;;;2.30;;
29466;SDS011;60968;37.490;-122.288;2023-02-11T18:07:18;6.47;;;1.50;;
29466;SDS011;60968;37.490;-122.288;2023-02-11T18:10:19;5.70;;;1.70;;
29466;SDS011;60968;37.490;-122.288;2023-02-11T18:13:20;3.47;;;1.20;;
29466;SDS011;60968;37.490;-122.288;2023-02-11T18:16:22;8.33;;;1.00;;
29466;SDS011;60968;37.490;-122.288;2023-02-11T18:19:23;3.90;;;1.17;;
29466;SDS011;60968;37.490;-122.288;2023-02-11T18:22:24;4.50;;;1.33;;
29466;SDS011;60968;37.490;-122.288;2023-02-11T18:25:27;4.20;;;1.17;;
29466;SDS011;60968;37.490;-122.288;2023-02-11T18:28:27;4.27;;;1.03;;
29466;SDS011;60968;37.490;-122.288;2023-02-11T18:31:29;6.63;;;1.17;;
29466;SDS011;60968;37.490;-122.288;2023-02-11T18:34:30;2.43;;;0.60;;
29466;SDS011;60968;37.490;-122.288;2023-02-11T18:37:30;4.30;;;0.87;;
29466;SDS011;60968;37.490;-122.288;2023-02-11T18:40:32;5.40;;;0.97;;
29466;SDS011;60968;37.490;-122.288;2023-02-11T18:43:33;1.97;;;0.90;;
29466;SDS011;60968;37.490;-122.288;2023-02-11T18:46:35;2.80;;;0.60;;
29466;SDS011;60968;37.490;-122.288;2023-02-11T18:49:36;3.43;;;0.67;;
29466;SDS011;60968;37.490;-122.288;2023-02-11T18:52:37;2.40;;;0.50;;
29466;SDS011;60968;37.490;-122.288;2023-02-11T18:55:42;2.90;;;0.63;;
29466;SDS011;60968;37.490;-122.288;2023-02-11T18:58:44;2.50;;;0.43;;
29466;SDS011;60968;37.490;-122.288;2023-02-11T19:01:46;3.30;;;0.40;;
29466;SDS011;60968;37.490;-122.288;2023-02-11T19:04:46;2.77;;;0.53;;
29466;SDS011;60968;37.490;-122.288;2023-02-11T19:07:47;2.40;;;0.43;;
29466;SDS011;60968;37.490;-122.288;2023-02-11T19:10:48;1.47;;;0.50;;
29466;SDS011;60968;37.490;-122.288;2023-02-11T19:13:49;2.00;;;0.67;;
29466;SDS011;60968;37.490;-122.288;2023-02-11T19:16:52;2.10;;;0.70;;
29466;SDS011;60968;37.490;-122.288;2023-02-11T19:19:54;3.80;;;0.77;;
29466;SDS011;60968;37.490;-122.288;2023-02-11T19:22:56;4.07;;;0.90;;
29466;SDS011;60968;37.490;-122.288;2023-02-11T19:25:57;3.07;;;0.80;;
29466;SDS011;60968;37.490;-122.288;2023-02-11T19:28:58;8.13;;;0.97;;
29466;SDS011;60968;37.490;-122.288;2023-02-11T19:32:00;6.13;;;0.90;;
29466;SDS011;60968;37.490;-122.288;2023-02-11T19:35:05;5.93;;;1.03;;
29466;SDS011;60968;37.490;-122.288;2023-02-11T19:38:06;6.33;;;1.10;;
29466;SDS011;60968;37.490;-122.288;2023-02-11T19:41:08;2.37;;;0.80;;
29466;SDS011;60968;37.490;-122.288;2023-02-11T19:44:09;5.33;;;1.10;;
29466;SDS011;60968;37.490;-122.288;2023-02-11T19:47:13;5.17;;;0.93;;
29466;SDS011;60968;37.490;-122.288;2023-02-11T19:50:13;7.00;;;1.20;;
29466;SDS011;60968;37.490;-122.288;2023-02-11T19:53:14;4.20;;;1.07;;
29466;SDS011;60968;37.490;-122.288;2023-02-11T19:56:15;8.10;;;0.80;;
29466;SDS011;60968;37.490;-122.288;2023-02-11T19:59:16;2.73;;;0.70;;
29466;SDS011;60968;37.490;-122.288;2023-02-11T20:02:17;5.20;;;1.03;;
29466;SDS011;60968;37.490;-122.288;2023-02-11T20:05:19;6.40;;;0.73;;
29466;SDS011;60968;37.490;-122.288;2023-02-11T20:08:19;5.87;;;1.17;;
29466;SDS011;60968;37.490;-122.288;2023-02-11T20:11:20;1.17;;;0.50;;